sensor_id;sensor_type;location;lat;lon;timestamp;P1;durP1;ratioP1;P2;durP2;ratioP2
16294;SDS011;8255;49.560;8.244;2023-04-25T00:02:04;6.60;;;5.10;;
16294;SDS011;8255;49.560;8.244;2023-04-25T00:04:33;5.68;;;5.20;;
16294;SDS011;8255;49.560;8.244;2023-04-25T00:06:59;5.80;;;5.40;;
16294;SDS011;8255;49.560;8.244;2023-04-25T00:09:27;5.88;;;5.38;;
16294;SDS011;8255;49.560;8.244;2023-04-25T00:11:54;5.20;;;4.80;;
16294;SDS011;8255;49.560;8.244;2023-04-25T00:14:20;5.93;;;5.53;;
16294;SDS011;8255;49.560;8.244;2023-04-25T00:16:47;5.35;;;5.05;;
16294;SDS011;8255;49.560;8.244;2023-04-25T00:19:16;5.65;;;5.25;;
16294;SDS011;8255;49.560;8.244;2023-04-25T00:21:44;5.40;;;5.00;;
16294;SDS011;8255;49.560;8.244;2023-04-25T00:24:11;5.43;;;5.07;;
16294;SDS011;8255;49.560;8.244;2023-04-25T00:26:37;5.78;;;5.22;;
16294;SDS011;8255;49.560;8.244;2023-04-25T00:29:04;5.28;;;4.88;;
16294;SDS011;8255;49.560;8.244;2023-04-25T00:31:30;5.82;;;5.03;;
16294;SDS011;8255;49.560;8.244;2023-04-25T00:33:57;5.80;;;5.38;;
16294;SDS011;8255;49.560;8.244;2023-04-25T00:36:24;6.30;;;5.70;;
16294;SDS011;8255;49.560;8.244;2023-04-25T00:38:52;5.85;;;5.35;;
16294;SDS011;8255;49.560;8.244;2023-04-25T00:41:18;21.92;;;18.10;;
16294;SDS011;8255;49.560;8.244;2023-04-25T00:43:45;8.75;;;7.90;;
16294;SDS011;8255;49.560;8.244;2023-04-25T00:46:13;5.85;;;5.13;;
16294;SDS011;8255;49.560;8.244;2023-04-25T00:48:39;6.00;;;5.45;;
16294;SDS011;8255;49.560;8.244;2023-04-25T00:51:05;5.72;;;5.18;;
16294;SDS011;8255;49.560;8.244;2023-04-25T00:53:32;5.68;;;5.25;;
16294;SDS011;8255;49.560;8.244;2023-04-25T00:56:00;5.78;;;5.38;;
16294;SDS011;8255;49.560;8.244;2023-04-25T00:58:27;5.88;;;5.47;;
16294;SDS011;8255;49.560;8.244;2023-04-25T01:00:53;6.57;;;5.97;;
16294;SDS011;8255;49.560;8.244;2023-04-25T01:03:21;5.72;;;5.32;;
16294;SDS011;8255;49.560;8.244;2023-04-25T01:05:48;6.10;;;5.60;;
16294;SDS011;8255;49.560;8.244;2023-04-25T01:08:14;5.95;;;5.55;;
16294;SDS011;8255;49.560;8.244;2023-04-25T01:10:40;5.93;;;5.50;;
16294;SDS011;8255;49.560;8.244;2023-04-25T01:13:08;6.05;;;5.55;;
16294;SDS011;8255;49.560;8.244;2023-04-25T01:15:35;6.15;;;5.65;;
16294;SDS011;8255;49.560;8.244;2023-04-25T01:18:02;6.07;;;5.55;;
16294;SDS011;8255;49.560;8.244;2023-04-25T01:20:28;6.43;;;5.90;;
16294;SDS011;8255;49.560;8.244;2023-04-25T01:22:57;6.35;;;5.85;;
16294;SDS011;8255;49.560;8.244;2023-04-25T01:25:23;6.18;;;5.65;;
16294;SDS011;8255;49.560;8.244;2023-04-25T01:27:50;5.97;;;5.47;;
16294;SDS011;8255;49.560;8.244;2023-04-25T01:30:16;6.07;;;5.57;;
16294;SDS011;8255;49.560;8.244;2023-04-25T01:32:43;6.45;;;5.88;;
16294;SDS011;8255;49.560;8.244;2023-04-25T01:35:10;6.93;;;6.32;;
16294;SDS011;8255;49.560;8.244;2023-04-25T01:37:37;6.75;;;6.15;;
16294;SDS011;8255;49.560;8.244;2023-04-25T01:40:06;16.75;;;13.98;;
16294;SDS011;8255;49.560;8.244;2023-04-25T01:42:33;21.17;;;17.60;;
16294;SDS011;8255;49.560;8.244;2023-04-25T01:44:59;11.40;;;7.07;;
16294;SDS011;8255;49.560;8.244;2023-04-25T01:47:26;8.30;;;6.75;;
16294;SDS011;8255;49.560;8.244;2023-04-25T01:49:53;7.13;;;6.40;;
16294;SDS011;8255;49.560;8.244;2023-04-25T01:52:20;6.95;;;6.45;;
16294;SDS011;8255;49.560;8.244;2023-04-25T01:54:46;7.20;;;6.60;;
16294;SDS011;8255;49.560;8.244;2023-04-25T01:57:15;7.80;;;7.10;;
16294;SDS011;8255;49.560;8.244;2023-04-25T01:59:43;8.10;;;7.35;;
16294;SDS011;8255;49.560;8.244;2023-04-25T02:02:28;7.38;;;6.68;;
16294;SDS011;8255;49.560;8.244;2023-04-25T02:04:55;7.50;;;6.88;;
16294;SDS011;8255;49.560;8.244;2023-04-25T02:07:23;7.50;;;6.80;;
16294;SDS011;8255;49.560;8.244;2023-04-25T02:09:52;7.38;;;6.65;;
16294;SDS011;8255;49.560;8.244;2023-04-25T02:12:21;8.32;;;7.63;;
16294;SDS011;8255;49.560;8.244;2023-04-25T02:15:04;8.18;;;7.47;;
16294;SDS011;8255;49.560;8.244;2023-04-25T02:17:57;9.88;;;9.00;;
16294;SDS011;8255;49.560;8.244;2023-04-25T02:20:25;15.25;;;13.73;;
16294;SDS011;8255;49.560;8.244;2023-04-25T02:22:51;11.07;;;10.07;;
16294;SDS011;8255;49.560;8.244;2023-04-25T02:25:19;9.65;;;8.73;;
16294;SDS011;8255;49.560;8.244;2023-04-25T02:27:47;9.25;;;8.32;;
16294;SDS011;8255;49.560;8.244;2023-04-25T02:30:14;9.60;;;8.70;;
16294;SDS011;8255;49.560;8.244;2023-04-25T02:32:41;9.27;;;8.35;;
16294;SDS011;8255;49.560;8.244;2023-04-25T02:35:08;10.25;;;9.35;;
16294;SDS011;8255;49.560;8.244;2023-04-25T02:37:35;10.15;;;9.15;;
16294;SDS011;8255;49.560;8.244;2023-04-25T02:40:01;9.23;;;8.43;;
16294;SDS011;8255;49.560;8.244;2023-04-25T02:42:30;10.20;;;9.20;;
16294;SDS011;8255;49.560;8.244;2023-04-25T02:44:58;9.80;;;8.80;;
16294;SDS011;8255;49.560;8.244;2023-04-25T02:47:25;10.02;;;9.02;;
16294;SDS011;8255;49.560;8.244;2023-04-25T02:49:52;10.85;;;9.77;;
16294;SDS011;8255;49.560;8.244;2023-04-25T02:52:18;9.68;;;8.88;;
16294;SDS011;8255;49.560;8.244;2023-04-25T02:54:51;11.38;;;9.88;;
16294;SDS011;8255;49.560;8.244;2023-04-25T02:57:18;11.32;;;9.32;;
16294;SDS011;8255;49.560;8.244;2023-04-25T02:59:44;9.85;;;8.93;;
16294;SDS011;8255;49.560;8.244;2023-04-25T03:09:08;8.98;;;8.07;;
16294;SDS011;8255;49.560;8.244;2023-04-25T03:11:36;9.30;;;8.40;;
16294;SDS011;8255;49.560;8.244;2023-04-25T03:14:03;21.25;;;18.27;;
16294;SDS011;8255;49.560;8.244;2023-04-25T03:16:31;13.40;;;12.00;;
16294;SDS011;8255;49.560;8.244;2023-04-25T03:18:58;19.02;;;13.77;;
16294;SDS011;8255;49.560;8.244;2023-04-25T03:21:25;13.63;;;9.45;;
16294;SDS011;8255;49.560;8.244;2023-04-25T03:23:51;10.55;;;9.48;;
16294;SDS011;8255;49.560;8.244;2023-04-25T03:26:21;10.70;;;9.32;;
16294;SDS011;8255;49.560;8.244;2023-04-25T03:28:48;10.73;;;9.68;;
16294;SDS011;8255;49.560;8.244;2023-04-25T03:31:14;9.55;;;8.70;;
16294;SDS011;8255;49.560;8.244;2023-04-25T03:33:41;10.73;;;9.73;;
16294;SDS011;8255;49.560;8.244;2023-04-25T03:36:08;10.00;;;9.10;;
16294;SDS011;8255;49.560;8.244;2023-04-25T03:38:34;9.32;;;8.50;;
16294;SDS011;8255;49.560;8.244;2023-04-25T03:41:01;9.65;;;8.65;;
16294;SDS011;8255;49.560;8.244;2023-04-25T03:47:20;10.00;;;9.00;;
16294;SDS011;8255;49.560;8.244;2023-04-25T03:49:47;10.13;;;9.20;;
16294;SDS011;8255;49.560;8.244;2023-04-25T03:52:18;9.88;;;9.00;;
16294;SDS011;8255;49.560;8.244;2023-04-25T03:54:46;10.52;;;9.52;;
16294;SDS011;8255;49.560;8.244;2023-04-25T03:57:16;10.15;;;9.18;;
16294;SDS011;8255;49.560;8.244;2023-04-25T03:59:43;10.25;;;9.25;;
16294;SDS011;8255;49.560;8.244;2023-04-25T04:02:12;9.93;;;9.02;;
16294;SDS011;8255;49.560;8.244;2023-04-25T04:04:40;10.15;;;8.93;;
16294;SDS011;8255;49.560;8.244;2023-04-25T04:07:09;9.32;;;8.48;;
16294;SDS011;8255;49.560;8.244;2023-04-25T04:09:38;11.05;;;9.95;;
16294;SDS011;8255;49.560;8.244;2023-04-25T04:12:14;11.02;;;9.93;;
16294;SDS011;8255;49.560;8.244;2023-04-25T04:14:41;10.00;;;9.07;;
16294;SDS011;8255;49.560;8.244;2023-04-25T04:17:07;10.38;;;9.30;;
16294;SDS011;8255;49.560;8.244;2023-04-25T04:19:34;9.52;;;8.52;;
16294;SDS011;8255;49.560;8.244;2023-04-25T04:22:20;9.25;;;8.35;;
16294;SDS011;8255;49.560;8.244;2023-04-25T04:24:47;9.77;;;8.77;;
16294;SDS011;8255;49.560;8.244;2023-04-25T04:27:19;9.00;;;8.10;;
16294;SDS011;8255;49.560;8.244;2023-04-25T04:30:07;9.27;;;7.93;;
16294;SDS011;8255;49.560;8.244;2023-04-25T04:32:38;9.13;;;8.18;;
16294;SDS011;8255;49.560;8.244;2023-04-25T04:35:05;9.45;;;8.55;;
16294;SDS011;8255;49.560;8.244;2023-04-25T04:37:33;8.80;;;7.90;;
16294;SDS011;8255;49.560;8.244;2023-04-25T04:40:01;10.32;;;9.32;;
16294;SDS011;8255;49.560;8.244;2023-04-25T04:42:39;11.90;;;10.70;;
16294;SDS011;8255;49.560;8.244;2023-04-25T04:45:35;10.68;;;9.68;;
16294;SDS011;8255;49.560;8.244;2023-04-25T04:48:09;15.70;;;14.07;;
16294;SDS011;8255;49.560;8.244;2023-04-25T04:50:55;12.38;;;11.18;;
16294;SDS011;8255;49.560;8.244;2023-04-25T04:53:49;14.73;;;12.63;;
16294;SDS011;8255;49.560;8.244;2023-04-25T04:56:34;10.00;;;9.07;;
16294;SDS011;8255;49.560;8.244;2023-04-25T04:59:19;10.38;;;8.73;;
16294;SDS011;8255;49.560;8.244;2023-04-25T05:02:05;9.27;;;8.32;;
16294;SDS011;8255;49.560;8.244;2023-04-25T05:05:00;8.70;;;7.90;;
16294;SDS011;8255;49.560;8.244;2023-04-25T05:07:49;11.00;;;9.10;;
16294;SDS011;8255;49.560;8.244;2023-04-25T05:10:31;8.57;;;7.78;;
16294;SDS011;8255;49.560;8.244;2023-04-25T05:13:04;9.77;;;8.77;;
16294;SDS011;8255;49.560;8.244;2023-04-25T05:15:55;9.05;;;8.15;;
16294;SDS011;8255;49.560;8.244;2023-04-25T05:18:45;9.93;;;8.43;;
16294;SDS011;8255;49.560;8.244;2023-04-25T05:21:30;9.07;;;8.25;;
16294;SDS011;8255;49.560;8.244;2023-04-25T05:24:23;9.32;;;8.25;;
16294;SDS011;8255;49.560;8.244;2023-04-25T05:27:10;9.88;;;8.90;;
16294;SDS011;8255;49.560;8.244;2023-04-25T05:30:04;9.30;;;8.40;;
16294;SDS011;8255;49.560;8.244;2023-04-25T05:32:37;8.98;;;8.07;;
16294;SDS011;8255;49.560;8.244;2023-04-25T05:35:04;9.10;;;8.20;;
16294;SDS011;8255;49.560;8.244;2023-04-25T05:37:38;9.68;;;8.75;;
16294;SDS011;8255;49.560;8.244;2023-04-25T05:40:09;8.48;;;7.75;;
16294;SDS011;8255;49.560;8.244;2023-04-25T05:42:56;9.18;;;8.30;;
16294;SDS011;8255;49.560;8.244;2023-04-25T05:45:41;9.68;;;8.77;;
16294;SDS011;8255;49.560;8.244;2023-04-25T05:48:28;9.52;;;8.50;;
16294;SDS011;8255;49.560;8.244;2023-04-25T05:51:18;9.38;;;8.45;;
16294;SDS011;8255;49.560;8.244;2023-04-25T05:53:47;9.20;;;8.40;;
16294;SDS011;8255;49.560;8.244;2023-04-25T05:56:14;9.43;;;8.63;;
16294;SDS011;8255;49.560;8.244;2023-04-25T05:58:42;9.63;;;8.73;;
16294;SDS011;8255;49.560;8.244;2023-04-25T06:01:10;9.13;;;8.27;;
16294;SDS011;8255;49.560;8.244;2023-04-25T06:03:37;8.77;;;7.97;;
16294;SDS011;8255;49.560;8.244;2023-04-25T06:06:04;7.47;;;6.82;;
16294;SDS011;8255;49.560;8.244;2023-04-25T06:08:31;8.63;;;7.70;;
16294;SDS011;8255;49.560;8.244;2023-04-25T06:10:57;7.05;;;6.45;;
16294;SDS011;8255;49.560;8.244;2023-04-25T06:13:23;7.82;;;7.13;;
16294;SDS011;8255;49.560;8.244;2023-04-25T06:15:51;8.27;;;7.50;;
16294;SDS011;8255;49.560;8.244;2023-04-25T06:18:18;8.77;;;7.88;;
16294;SDS011;8255;49.560;8.244;2023-04-25T06:20:44;7.43;;;6.68;;
16294;SDS011;8255;49.560;8.244;2023-04-25T06:23:11;8.48;;;6.65;;
16294;SDS011;8255;49.560;8.244;2023-04-25T06:25:51;7.80;;;5.63;;
16294;SDS011;8255;49.560;8.244;2023-04-25T06:28:17;9.32;;;6.47;;
16294;SDS011;8255;49.560;8.244;2023-04-25T06:30:44;10.02;;;6.57;;
16294;SDS011;8255;49.560;8.244;2023-04-25T06:33:18;7.72;;;5.90;;
16294;SDS011;8255;49.560;8.244;2023-04-25T06:35:45;9.77;;;6.88;;
16294;SDS011;8255;49.560;8.244;2023-04-25T06:38:15;10.18;;;7.00;;
16294;SDS011;8255;49.560;8.244;2023-04-25T06:40:45;9.45;;;7.30;;
16294;SDS011;8255;49.560;8.244;2023-04-25T06:43:12;7.78;;;7.03;;
16294;SDS011;8255;49.560;8.244;2023-04-25T06:45:53;11.43;;;7.90;;
16294;SDS011;8255;49.560;8.244;2023-04-25T06:48:23;8.45;;;7.07;;
16294;SDS011;8255;49.560;8.244;2023-04-25T06:50:51;10.20;;;8.07;;
16294;SDS011;8255;49.560;8.244;2023-04-25T06:53:18;7.80;;;6.57;;
16294;SDS011;8255;49.560;8.244;2023-04-25T06:55:48;10.40;;;6.63;;
16294;SDS011;8255;49.560;8.244;2023-04-25T06:58:17;8.23;;;6.47;;
16294;SDS011;8255;49.560;8.244;2023-04-25T07:01:03;11.90;;;6.65;;
16294;SDS011;8255;49.560;8.244;2023-04-25T07:03:31;10.77;;;7.18;;
16294;SDS011;8255;49.560;8.244;2023-04-25T07:06:02;9.57;;;6.65;;
16294;SDS011;8255;49.560;8.244;2023-04-25T07:08:28;15.00;;;6.68;;
16294;SDS011;8255;49.560;8.244;2023-04-25T07:10:56;10.68;;;6.25;;
16294;SDS011;8255;49.560;8.244;2023-04-25T07:13:22;6.88;;;5.47;;
16294;SDS011;8255;49.560;8.244;2023-04-25T07:15:49;11.48;;;6.22;;
16294;SDS011;8255;49.560;8.244;2023-04-25T07:18:18;11.93;;;6.15;;
16294;SDS011;8255;49.560;8.244;2023-04-25T07:20:46;8.07;;;5.55;;
16294;SDS011;8255;49.560;8.244;2023-04-25T07:23:12;10.68;;;5.53;;
16294;SDS011;8255;49.560;8.244;2023-04-25T07:25:39;12.85;;;6.15;;
16294;SDS011;8255;49.560;8.244;2023-04-25T07:28:06;8.82;;;6.20;;
16294;SDS011;8255;49.560;8.244;2023-04-25T07:30:33;13.43;;;6.35;;
16294;SDS011;8255;49.560;8.244;2023-04-25T07:33:02;9.27;;;5.72;;
16294;SDS011;8255;49.560;8.244;2023-04-25T07:35:29;12.05;;;6.20;;
16294;SDS011;8255;49.560;8.244;2023-04-25T07:37:57;12.40;;;6.13;;
16294;SDS011;8255;49.560;8.244;2023-04-25T07:40:24;9.30;;;5.80;;
16294;SDS011;8255;49.560;8.244;2023-04-25T07:42:55;8.65;;;5.72;;
16294;SDS011;8255;49.560;8.244;2023-04-25T07:45:44;12.48;;;6.28;;
16294;SDS011;8255;49.560;8.244;2023-04-25T07:48:10;10.02;;;6.43;;
16294;SDS011;8255;49.560;8.244;2023-04-25T07:50:38;11.40;;;6.18;;
16294;SDS011;8255;49.560;8.244;2023-04-25T07:53:06;11.15;;;6.63;;
16294;SDS011;8255;49.560;8.244;2023-04-25T07:55:41;9.52;;;6.25;;
16294;SDS011;8255;49.560;8.244;2023-04-25T07:58:13;9.00;;;5.90;;
16294;SDS011;8255;49.560;8.244;2023-04-25T08:00:43;9.68;;;5.80;;
16294;SDS011;8255;49.560;8.244;2023-04-25T08:03:38;6.88;;;5.00;;
16294;SDS011;8255;49.560;8.244;2023-04-25T08:06:10;7.20;;;4.53;;
16294;SDS011;8255;49.560;8.244;2023-04-25T08:08:48;9.20;;;4.13;;
16294;SDS011;8255;49.560;8.244;2023-04-25T08:11:18;7.15;;;4.28;;
16294;SDS011;8255;49.560;8.244;2023-04-25T08:13:44;10.98;;;5.30;;
16294;SDS011;8255;49.560;8.244;2023-04-25T08:16:11;9.73;;;5.07;;
16294;SDS011;8255;49.560;8.244;2023-04-25T08:18:37;9.82;;;5.35;;
16294;SDS011;8255;49.560;8.244;2023-04-25T08:21:04;5.50;;;4.25;;
16294;SDS011;8255;49.560;8.244;2023-04-25T08:23:31;7.72;;;4.88;;
16294;SDS011;8255;49.560;8.244;2023-04-25T08:26:04;9.80;;;5.07;;
16294;SDS011;8255;49.560;8.244;2023-04-25T08:28:34;9.02;;;5.50;;
16294;SDS011;8255;49.560;8.244;2023-04-25T08:31:01;11.63;;;5.53;;
16294;SDS011;8255;49.560;8.244;2023-04-25T08:33:34;5.95;;;4.45;;
16294;SDS011;8255;49.560;8.244;2023-04-25T08:36:11;4.75;;;3.80;;
16294;SDS011;8255;49.560;8.244;2023-04-25T08:38:37;7.10;;;4.60;;
16294;SDS011;8255;49.560;8.244;2023-04-25T08:41:08;9.75;;;5.38;;
16294;SDS011;8255;49.560;8.244;2023-04-25T08:43:37;6.85;;;4.13;;
16294;SDS011;8255;49.560;8.244;2023-04-25T08:46:03;6.97;;;4.35;;
16294;SDS011;8255;49.560;8.244;2023-04-25T08:48:39;7.32;;;4.18;;
16294;SDS011;8255;49.560;8.244;2023-04-25T08:51:06;7.63;;;4.43;;
16294;SDS011;8255;49.560;8.244;2023-04-25T08:53:33;6.28;;;4.18;;
16294;SDS011;8255;49.560;8.244;2023-04-25T08:56:02;5.30;;;4.30;;
16294;SDS011;8255;49.560;8.244;2023-04-25T08:58:34;5.05;;;3.95;;
16294;SDS011;8255;49.560;8.244;2023-04-25T09:01:01;4.53;;;3.47;;
16294;SDS011;8255;49.560;8.244;2023-04-25T09:03:32;6.22;;;4.18;;
16294;SDS011;8255;49.560;8.244;2023-04-25T09:05:58;6.70;;;4.07;;
16294;SDS011;8255;49.560;8.244;2023-04-25T09:08:25;4.80;;;3.90;;
16294;SDS011;8255;49.560;8.244;2023-04-25T09:10:51;8.30;;;4.07;;
16294;SDS011;8255;49.560;8.244;2023-04-25T09:13:24;8.45;;;4.30;;
16294;SDS011;8255;49.560;8.244;2023-04-25T09:16:09;13.48;;;5.15;;
16294;SDS011;8255;49.560;8.244;2023-04-25T09:18:57;4.30;;;3.90;;
16294;SDS011;8255;49.560;8.244;2023-04-25T09:21:24;4.85;;;4.00;;
16294;SDS011;8255;49.560;8.244;2023-04-25T09:23:50;6.47;;;4.68;;
16294;SDS011;8255;49.560;8.244;2023-04-25T09:26:18;6.35;;;4.10;;
16294;SDS011;8255;49.560;8.244;2023-04-25T09:28:45;5.68;;;4.30;;
16294;SDS011;8255;49.560;8.244;2023-04-25T09:31:22;5.68;;;4.35;;
16294;SDS011;8255;49.560;8.244;2023-04-25T09:33:49;6.18;;;4.10;;
16294;SDS011;8255;49.560;8.244;2023-04-25T09:36:16;5.15;;;4.10;;
16294;SDS011;8255;49.560;8.244;2023-04-25T09:39:14;5.72;;;4.47;;
16294;SDS011;8255;49.560;8.244;2023-04-25T09:41:45;7.40;;;4.97;;
16294;SDS011;8255;49.560;8.244;2023-04-25T09:44:12;5.95;;;4.22;;
16294;SDS011;8255;49.560;8.244;2023-04-25T09:46:42;9.63;;;4.90;;
16294;SDS011;8255;49.560;8.244;2023-04-25T09:49:16;7.70;;;4.35;;
16294;SDS011;8255;49.560;8.244;2023-04-25T09:52:00;4.93;;;4.25;;
16294;SDS011;8255;49.560;8.244;2023-04-25T09:54:48;8.20;;;4.80;;
16294;SDS011;8255;49.560;8.244;2023-04-25T09:57:20;4.68;;;4.03;;
16294;SDS011;8255;49.560;8.244;2023-04-25T09:59:48;8.00;;;4.45;;
16294;SDS011;8255;49.560;8.244;2023-04-25T10:02:17;5.55;;;4.30;;
16294;SDS011;8255;49.560;8.244;2023-04-25T10:04:49;7.35;;;4.55;;
16294;SDS011;8255;49.560;8.244;2023-04-25T10:07:22;4.32;;;3.95;;
16294;SDS011;8255;49.560;8.244;2023-04-25T10:09:51;5.32;;;3.83;;
16294;SDS011;8255;49.560;8.244;2023-04-25T10:12:21;5.78;;;4.40;;
16294;SDS011;8255;49.560;8.244;2023-04-25T10:14:48;6.53;;;4.25;;
16294;SDS011;8255;49.560;8.244;2023-04-25T10:17:14;6.63;;;4.07;;
16294;SDS011;8255;49.560;8.244;2023-04-25T10:19:42;5.55;;;3.97;;
16294;SDS011;8255;49.560;8.244;2023-04-25T10:22:11;5.38;;;4.25;;
16294;SDS011;8255;49.560;8.244;2023-04-25T10:24:38;4.82;;;4.30;;
16294;SDS011;8255;49.560;8.244;2023-04-25T10:27:05;5.60;;;3.80;;
16294;SDS011;8255;49.560;8.244;2023-04-25T10:29:32;5.00;;;4.22;;
16294;SDS011;8255;49.560;8.244;2023-04-25T10:31:58;8.82;;;5.18;;
16294;SDS011;8255;49.560;8.244;2023-04-25T10:34:37;4.95;;;4.25;;
16294;SDS011;8255;49.560;8.244;2023-04-25T10:37:06;7.95;;;5.47;;
16294;SDS011;8255;49.560;8.244;2023-04-25T10:39:34;5.55;;;4.43;;
16294;SDS011;8255;49.560;8.244;2023-04-25T10:42:01;5.70;;;4.00;;
16294;SDS011;8255;49.560;8.244;2023-04-25T10:44:27;5.15;;;3.88;;
16294;SDS011;8255;49.560;8.244;2023-04-25T10:46:54;4.35;;;3.78;;
16294;SDS011;8255;49.560;8.244;2023-04-25T10:49:31;4.10;;;3.70;;
16294;SDS011;8255;49.560;8.244;2023-04-25T10:52:13;3.72;;;3.42;;
16294;SDS011;8255;49.560;8.244;2023-04-25T10:54:40;5.80;;;3.88;;
16294;SDS011;8255;49.560;8.244;2023-04-25T10:57:06;5.30;;;3.83;;
16294;SDS011;8255;49.560;8.244;2023-04-25T10:59:33;4.70;;;4.15;;
16294;SDS011;8255;49.560;8.244;2023-04-25T11:01:59;4.22;;;3.53;;
16294;SDS011;8255;49.560;8.244;2023-04-25T11:04:37;3.58;;;3.28;;
16294;SDS011;8255;49.560;8.244;2023-04-25T11:07:16;4.25;;;3.20;;
16294;SDS011;8255;49.560;8.244;2023-04-25T11:09:49;3.45;;;3.22;;
16294;SDS011;8255;49.560;8.244;2023-04-25T11:12:15;3.47;;;3.10;;
16294;SDS011;8255;49.560;8.244;2023-04-25T11:14:42;3.53;;;3.00;;
16294;SDS011;8255;49.560;8.244;2023-04-25T11:17:09;3.67;;;3.35;;
16294;SDS011;8255;49.560;8.244;2023-04-25T11:19:36;4.15;;;3.75;;
16294;SDS011;8255;49.560;8.244;2023-04-25T11:22:02;7.22;;;4.15;;
16294;SDS011;8255;49.560;8.244;2023-04-25T11:24:30;4.18;;;3.83;;
16294;SDS011;8255;49.560;8.244;2023-04-25T11:26:58;5.20;;;3.92;;
16294;SDS011;8255;49.560;8.244;2023-04-25T11:29:28;4.25;;;3.85;;
16294;SDS011;8255;49.560;8.244;2023-04-25T11:31:55;5.03;;;4.53;;
16294;SDS011;8255;49.560;8.244;2023-04-25T11:34:23;4.78;;;4.20;;
16294;SDS011;8255;49.560;8.244;2023-04-25T11:36:50;4.55;;;4.00;;
16294;SDS011;8255;49.560;8.244;2023-04-25T11:39:17;4.93;;;4.13;;
16294;SDS011;8255;49.560;8.244;2023-04-25T11:41:44;5.03;;;3.53;;
16294;SDS011;8255;49.560;8.244;2023-04-25T11:44:11;4.78;;;3.55;;
16294;SDS011;8255;49.560;8.244;2023-04-25T11:46:38;4.20;;;3.65;;
16294;SDS011;8255;49.560;8.244;2023-04-25T11:49:04;4.15;;;3.45;;
16294;SDS011;8255;49.560;8.244;2023-04-25T11:51:37;3.72;;;3.40;;
16294;SDS011;8255;49.560;8.244;2023-04-25T11:54:03;3.80;;;3.33;;
16294;SDS011;8255;49.560;8.244;2023-04-25T11:56:30;3.53;;;3.22;;
16294;SDS011;8255;49.560;8.244;2023-04-25T11:58:58;3.97;;;3.65;;
16294;SDS011;8255;49.560;8.244;2023-04-25T12:01:30;3.63;;;3.30;;
16294;SDS011;8255;49.560;8.244;2023-04-25T12:03:57;3.95;;;3.33;;
16294;SDS011;8255;49.560;8.244;2023-04-25T12:06:25;4.05;;;3.30;;
16294;SDS011;8255;49.560;8.244;2023-04-25T12:08:59;4.22;;;3.35;;
16294;SDS011;8255;49.560;8.244;2023-04-25T12:11:25;3.75;;;3.40;;
16294;SDS011;8255;49.560;8.244;2023-04-25T12:13:52;4.55;;;3.35;;
16294;SDS011;8255;49.560;8.244;2023-04-25T12:16:18;4.18;;;3.58;;
16294;SDS011;8255;49.560;8.244;2023-04-25T12:18:46;4.18;;;3.30;;
16294;SDS011;8255;49.560;8.244;2023-04-25T12:21:12;6.20;;;3.78;;
16294;SDS011;8255;49.560;8.244;2023-04-25T12:23:39;5.15;;;3.78;;
16294;SDS011;8255;49.560;8.244;2023-04-25T12:26:06;3.53;;;3.22;;
16294;SDS011;8255;49.560;8.244;2023-04-25T12:28:33;6.43;;;3.83;;
16294;SDS011;8255;49.560;8.244;2023-04-25T12:31:00;4.97;;;4.00;;
16294;SDS011;8255;49.560;8.244;2023-04-25T12:33:27;7.22;;;4.20;;
16294;SDS011;8255;49.560;8.244;2023-04-25T12:35:55;4.85;;;3.70;;
16294;SDS011;8255;49.560;8.244;2023-04-25T12:38:23;5.75;;;3.72;;
16294;SDS011;8255;49.560;8.244;2023-04-25T12:40:50;5.82;;;4.20;;
16294;SDS011;8255;49.560;8.244;2023-04-25T12:43:16;6.55;;;3.90;;
16294;SDS011;8255;49.560;8.244;2023-04-25T12:45:43;8.23;;;3.70;;
16294;SDS011;8255;49.560;8.244;2023-04-25T12:48:09;4.75;;;3.58;;
16294;SDS011;8255;49.560;8.244;2023-04-25T12:50:36;5.53;;;3.47;;
16294;SDS011;8255;49.560;8.244;2023-04-25T12:53:03;5.63;;;3.63;;
16294;SDS011;8255;49.560;8.244;2023-04-25T12:55:30;8.32;;;3.95;;
16294;SDS011;8255;49.560;8.244;2023-04-25T12:57:56;4.18;;;3.80;;
16294;SDS011;8255;49.560;8.244;2023-04-25T13:00:23;5.45;;;4.20;;
16294;SDS011;8255;49.560;8.244;2023-04-25T13:02:49;5.22;;;3.35;;
16294;SDS011;8255;49.560;8.244;2023-04-25T13:05:16;5.07;;;3.75;;
16294;SDS011;8255;49.560;8.244;2023-04-25T13:07:42;5.97;;;3.53;;
16294;SDS011;8255;49.560;8.244;2023-04-25T13:10:10;5.47;;;3.40;;
16294;SDS011;8255;49.560;8.244;2023-04-25T13:12:37;5.43;;;3.25;;
16294;SDS011;8255;49.560;8.244;2023-04-25T13:15:03;4.28;;;3.35;;
16294;SDS011;8255;49.560;8.244;2023-04-25T13:17:30;4.90;;;3.67;;
16294;SDS011;8255;49.560;8.244;2023-04-25T13:19:56;7.32;;;3.47;;
16294;SDS011;8255;49.560;8.244;2023-04-25T13:22:23;4.28;;;3.65;;
16294;SDS011;8255;49.560;8.244;2023-04-25T13:24:49;4.88;;;3.50;;
16294;SDS011;8255;49.560;8.244;2023-04-25T13:27:17;5.80;;;3.70;;
16294;SDS011;8255;49.560;8.244;2023-04-25T13:29:43;7.07;;;4.47;;
16294;SDS011;8255;49.560;8.244;2023-04-25T13:32:10;3.85;;;3.40;;
16294;SDS011;8255;49.560;8.244;2023-04-25T13:34:36;6.57;;;3.60;;
16294;SDS011;8255;49.560;8.244;2023-04-25T13:37:03;7.70;;;3.78;;
16294;SDS011;8255;49.560;8.244;2023-04-25T13:39:30;6.00;;;3.40;;
16294;SDS011;8255;49.560;8.244;2023-04-25T13:41:56;4.72;;;3.35;;
16294;SDS011;8255;49.560;8.244;2023-04-25T13:44:24;11.10;;;3.67;;
16294;SDS011;8255;49.560;8.244;2023-04-25T13:46:50;5.10;;;3.30;;
16294;SDS011;8255;49.560;8.244;2023-04-25T13:49:17;4.65;;;3.38;;
16294;SDS011;8255;49.560;8.244;2023-04-25T13:51:44;4.88;;;3.33;;
16294;SDS011;8255;49.560;8.244;2023-04-25T13:54:10;5.90;;;3.22;;
16294;SDS011;8255;49.560;8.244;2023-04-25T13:56:37;4.68;;;3.17;;
16294;SDS011;8255;49.560;8.244;2023-04-25T13:59:03;3.63;;;2.90;;
16294;SDS011;8255;49.560;8.244;2023-04-25T14:01:31;4.95;;;2.88;;
16294;SDS011;8255;49.560;8.244;2023-04-25T14:03:59;7.47;;;3.25;;
16294;SDS011;8255;49.560;8.244;2023-04-25T14:06:25;4.10;;;2.88;;
16294;SDS011;8255;49.560;8.244;2023-04-25T14:08:52;13.57;;;3.72;;
16294;SDS011;8255;49.560;8.244;2023-04-25T14:11:19;4.35;;;2.65;;
16294;SDS011;8255;49.560;8.244;2023-04-25T14:13:46;5.63;;;2.95;;
16294;SDS011;8255;49.560;8.244;2023-04-25T14:16:14;6.32;;;3.22;;
16294;SDS011;8255;49.560;8.244;2023-04-25T14:18:41;4.22;;;3.42;;
16294;SDS011;8255;49.560;8.244;2023-04-25T14:21:08;8.45;;;3.50;;
16294;SDS011;8255;49.560;8.244;2023-04-25T14:23:35;4.32;;;3.25;;
16294;SDS011;8255;49.560;8.244;2023-04-25T14:26:01;6.43;;;3.50;;
16294;SDS011;8255;49.560;8.244;2023-04-25T14:28:28;3.85;;;3.20;;
16294;SDS011;8255;49.560;8.244;2023-04-25T14:30:54;10.35;;;3.75;;
16294;SDS011;8255;49.560;8.244;2023-04-25T14:33:21;5.75;;;3.45;;
16294;SDS011;8255;49.560;8.244;2023-04-25T14:35:50;6.53;;;3.90;;
16294;SDS011;8255;49.560;8.244;2023-04-25T14:38:16;5.07;;;3.53;;
16294;SDS011;8255;49.560;8.244;2023-04-25T14:40:43;4.28;;;3.08;;
16294;SDS011;8255;49.560;8.244;2023-04-25T14:43:10;5.28;;;3.97;;
16294;SDS011;8255;49.560;8.244;2023-04-25T14:45:36;5.20;;;3.53;;
16294;SDS011;8255;49.560;8.244;2023-04-25T14:48:03;7.20;;;3.05;;
16294;SDS011;8255;49.560;8.244;2023-04-25T14:50:29;4.10;;;3.33;;
16294;SDS011;8255;49.560;8.244;2023-04-25T14:52:57;5.18;;;3.20;;
16294;SDS011;8255;49.560;8.244;2023-04-25T14:55:25;4.20;;;3.15;;
16294;SDS011;8255;49.560;8.244;2023-04-25T14:57:52;5.47;;;2.88;;
16294;SDS011;8255;49.560;8.244;2023-04-25T15:00:19;3.00;;;2.50;;
16294;SDS011;8255;49.560;8.244;2023-04-25T15:02:45;4.97;;;2.60;;
16294;SDS011;8255;49.560;8.244;2023-04-25T15:05:12;3.78;;;2.58;;
16294;SDS011;8255;49.560;8.244;2023-04-25T15:07:38;3.60;;;2.28;;
16294;SDS011;8255;49.560;8.244;2023-04-25T15:10:07;4.45;;;2.50;;
16294;SDS011;8255;49.560;8.244;2023-04-25T15:12:38;5.55;;;2.60;;
16294;SDS011;8255;49.560;8.244;2023-04-25T15:15:06;3.33;;;2.67;;
16294;SDS011;8255;49.560;8.244;2023-04-25T15:17:36;4.55;;;2.65;;
16294;SDS011;8255;49.560;8.244;2023-04-25T15:20:03;4.25;;;2.40;;
16294;SDS011;8255;49.560;8.244;2023-04-25T15:22:31;3.92;;;2.20;;
16294;SDS011;8255;49.560;8.244;2023-04-25T15:24:57;3.95;;;2.40;;